Time;durP1;ratioP1;P1;durP2;ratioP2;P2;SDS_P1;SDS_P2;PMS_P1;PMS_P2;Temp;Humidity;BMP_temperature;BMP_pressure;BME280_temperature;BME280_humidity;BME280_pressure;Samples;Min_cycle;Max_cycle;Signal;HPM_P1;HPM_P2
2022/05/02 00:00:42;;;;;;;5.47;3.60;;;;;;;12.58;63.62;99286.13;4290713;33;34741;-71
2022/05/02 00:03:11;;;;;;;7.18;3.80;;;;;;;12.83;61.98;99285.66;4288523;33;35295;-71
2022/05/02 00:05:39;;;;;;;6.00;3.85;;;;;;;12.35;63.71;99281.38;4289962;33;35291;-70
2022/05/02 00:08:07;;;;;;;8.07;3.80;;;;;;;12.65;62.07;99290.38;4289737;33;33690;-71
2022/05/02 00:10:36;;;;;;;6.53;4.30;;;;;;;12.42;63.01;99297.78;4290070;33;34150;-70
2022/05/02 00:13:06;;;;;;;5.68;3.35;;;;;;;11.95;60.61;99298.63;4289595;33;35186;-70
2022/05/02 00:15:33;;;;;;;6.87;4.03;;;;;;;11.58;62.03;99293.97;4290567;33;33719;-70
2022/05/02 00:18:02;;;;;;;7.55;4.62;;;;;;;11.70;61.67;99292.03;4288836;33;33553;-71
2022/05/02 00:20:35;;;;;;;6.20;4.00;;;;;;;12.61;62.36;99293.94;4290560;33;33765;-71
2022/05/02 00:23:07;;;;;;;5.70;3.30;;;;;;;12.21;62.12;99284.25;4288624;33;35278;-70
2022/05/02 00:25:34;;;;;;;12.37;4.45;;;;;;;12.12;63.58;99289.63;4290423;33;35322;-70
2022/05/02 00:28:03;;;;;;;7.35;4.10;;;;;;;11.80;64.86;99285.78;4289598;33;33677;-70
2022/05/02 00:30:31;;;;;;;8.52;3.83;;;;;;;11.71;63.90;99288.56;4289601;33;34707;-70
2022/05/02 00:32:59;;;;;;;7.72;4.00;;;;;;;12.42;63.78;99290.81;4289674;33;35037;-70
2022/05/02 00:35:27;;;;;;;6.32;4.82;;;;;;;12.19;63.92;99291.22;4289649;33;34295;-70
2022/05/02 00:37:55;;;;;;;5.93;4.07;;;;;;;12.33;64.14;99286.66;4289556;33;33540;-70
2022/05/02 00:40:23;;;;;;;8.18;4.37;;;;;;;12.43;64.17;99287.31;4290445;33;33933;-70
2022/05/02 00:42:51;;;;;;;6.25;4.07;;;;;;;12.49;63.56;99284.59;4289465;33;34952;-70
2022/05/02 00:45:20;;;;;;;8.60;4.60;;;;;;;12.03;63.79;99284.56;4290334;33;34607;-71
2022/05/02 00:47:50;;;;;;;7.53;4.07;;;;;;;11.58;64.44;99293.97;4289433;33;34582;-71
2022/05/02 00:50:35;;;;;;;5.43;4.00;;;;;;;12.11;63.72;99290.53;4289581;33;34036;-72
2022/05/02 00:53:05;;;;;;;10.02;4.57;;;;;;;12.58;62.89;99291.38;4289524;33;35092;-70
2022/05/02 00:55:33;;;;;;;7.57;4.50;;;;;;;12.60;63.19;99301.78;4290101;33;34401;-71
2022/05/02 00:58:02;;;;;;;8.85;4.45;;;;;;;11.91;65.39;99302.19;4289462;33;33558;-71
2022/05/02 01:00:32;;;;;;;6.00;4.25;;;;;;;12.26;64.23;99298.06;4290341;33;34658;-71
2022/05/02 01:03:01;;;;;;;6.10;3.97;;;;;;;11.80;64.49;99298.84;4289340;33;34333;-70
2022/05/02 01:05:29;;;;;;;8.45;4.68;;;;;;;12.35;63.78;99291.81;4290216;33;34184;-70
2022/05/02 01:07:57;;;;;;;8.15;4.55;;;;;;;12.33;63.74;99298.81;4287398;33;33678;-73
2022/05/02 01:10:26;;;;;;;6.32;4.82;;;;;;;11.76;66.51;99294.56;4275885;33;34227;-70
2022/05/02 01:12:54;;;;;;;8.65;4.25;;;;;;;11.84;64.67;99297.91;4285647;33;36033;-70
2022/05/02 01:15:22;;;;;;;6.07;4.25;;;;;;;11.26;66.89;99299.69;4290153;33;35157;-71
2022/05/02 01:17:50;;;;;;;7.28;4.90;;;;;;;12.09;65.60;99298.38;4289256;33;33566;-71
2022/05/02 01:20:17;;;;;;;7.35;4.55;;;;;;;11.50;67.67;99295.81;4290084;33;33936;-71
2022/05/02 01:22:45;;;;;;;9.75;5.03;;;;;;;11.48;67.37;99297.59;4288987;33;35069;-70
2022/05/02 01:25:13;;;;;;;6.93;4.78;;;;;;;12.21;65.00;99291.22;4289289;33;34607;-70
2022/05/02 01:27:41;;;;;;;6.93;4.32;;;;;;;12.16;64.91;99291.31;4289403;33;34484;-71
2022/05/02 01:30:09;;;;;;;6.12;4.45;;;;;;;12.10;64.72;99292.25;4290118;33;34797;-70
2022/05/02 01:32:37;;;;;;;7.55;4.45;;;;;;;12.15;64.38;99297.41;4289122;33;35199;-71
2022/05/02 01:35:05;;;;;;;8.05;4.75;;;;;;;12.42;64.88;99292.56;4290048;33;34546;-70
2022/05/02 01:37:33;;;;;;;7.85;4.00;;;;;;;12.44;64.06;99296.00;4289173;33;33534;-70
2022/05/02 01:40:01;;;;;;;8.45;4.82;;;;;;;11.85;64.37;99301.38;4289078;33;34411;-71
2022/05/02 01:42:29;;;;;;;7.95;4.12;;;;;;;12.26;65.28;99302.44;4288331;33;35065;-70
2022/05/02 01:44:56;;;;;;;10.30;4.28;;;;;;;12.60;64.61;99302.66;4289859;33;34382;-70
2022/05/02 01:47:24;;;;;;;6.65;4.25;;;;;;;12.19;64.73;99309.50;4288960;33;33954;-72
2022/05/02 01:49:52;;;;;;;6.40;4.03;;;;;;;12.64;64.80;99309.56;4289827;33;34736;-70
2022/05/02 01:52:20;;;;;;;6.40;4.00;;;;;;;12.79;64.28;99304.91;4289119;33;35108;-70
2022/05/02 01:54:48;;;;;;;5.80;4.15;;;;;;;12.08;66.10;99319.28;4289289;33;35255;-70
2022/05/02 01:57:17;;;;;;;5.65;4.15;;;;;;;12.42;65.81;99322.13;4288778;33;33642;-70
2022/05/02 01:59:44;;;;;;;6.32;4.25;;;;;;;11.93;62.59;99316.06;4288966;33;33851;-71
2022/05/02 02:02:12;;;;;;;6.72;4.30;;;;;;;12.14;62.82;99307.00;4288050;33;34954;-71
2022/05/02 02:07:27;;;;;;;7.05;4.72;;;;;;;12.80;64.80;99306.63;4288769;33;33666;-70
2022/05/02 02:09:55;;;;;;;9.15;4.47;;;;;;;12.81;64.31;99305.72;4288939;33;34831;-73
2022/05/02 02:12:23;;;;;;;7.35;4.32;;;;;;;12.79;63.20;99307.53;4279864;33;34975;-71
2022/05/02 02:14:50;;;;;;;7.18;4.57;;;;;;;12.61;63.38;99306.13;4290023;33;34612;-71
2022/05/02 02:17:18;;;;;;;8.88;4.57;;;;;;;12.42;66.10;99309.09;4288277;33;33658;-71
2022/05/02 02:19:46;;;;;;;6.22;4.30;;;;;;;12.66;66.54;99309.53;4291061;33;34759;-71
2022/05/02 02:22:17;;;;;;;6.87;4.50;;;;;;;12.21;69.04;99314.72;4290751;33;36017;-71
2022/05/02 02:24:46;;;;;;;8.82;4.70;;;;;;;12.30;68.66;99304.97;4291275;33;34270;-71
2022/05/02 02:27:15;;;;;;;6.85;4.40;;;;;;;12.97;65.97;99307.16;4289595;33;33562;-71
2022/05/02 02:29:42;;;;;;;6.95;4.53;;;;;;;13.07;65.02;99303.41;4290022;33;33872;-71
2022/05/02 02:32:10;;;;;;;6.87;4.07;;;;;;;13.03;64.49;99301.78;4290335;33;34945;-71
2022/05/02 02:34:38;;;;;;;7.55;4.40;;;;;;;12.50;65.05;99306.34;4291096;33;34587;-73
2022/05/02 02:37:06;;;;;;;7.78;5.40;;;;;;;12.16;66.01;99301.75;4276755;33;33780;-71
2022/05/02 02:39:34;;;;;;;6.65;4.57;;;;;;;12.84;66.46;99303.06;4291000;33;33651;-72
2022/05/02 02:42:02;;;;;;;6.47;4.50;;;;;;;12.91;66.33;99291.59;4290273;33;35819;-71
2022/05/02 02:44:29;;;;;;;9.27;4.82;;;;;;;12.80;66.84;99304.03;4291232;33;35186;-72
2022/05/02 02:46:57;;;;;;;7.12;4.47;;;;;;;13.03;65.98;99300.94;4290273;33;34351;-71
2022/05/02 02:49:25;;;;;;;8.27;4.32;;;;;;;13.19;65.16;99301.44;4291323;33;34933;-72
2022/05/02 02:51:53;;;;;;;7.18;4.62;;;;;;;12.86;66.38;99304.72;4290203;33;35875;-72
2022/05/02 02:54:21;;;;;;;7.62;4.87;;;;;;;13.18;66.56;99304.94;4283846;33;245389;-72
2022/05/02 02:56:48;;;;;;;8.50;4.85;;;;;;;12.88;65.26;99297.75;4289079;33;34666;-72
2022/05/02 02:59:16;;;;;;;7.15;4.62;;;;;;;13.10;66.08;99297.28;4290226;33;33948;-73
2022/05/02 03:01:44;;;;;;;7.22;4.72;;;;;;;13.18;66.38;99302.34;4290305;33;35215;-72
2022/05/02 03:06:59;;;;;;;7.97;4.72;;;;;;;13.74;63.06;99302.81;4277541;33;33674;-72
2022/05/02 03:09:28;;;;;;;7.00;4.70;;;;;;;14.09;62.03;99300.22;4290880;33;33968;-72
2022/05/02 03:11:55;;;;;;;6.87;4.53;;;;;;;13.06;64.69;99296.50;4289426;33;35883;-71
2022/05/02 03:14:23;;;;;;;6.80;4.53;;;;;;;12.92;64.78;99298.53;4290136;33;35274;-71
2022/05/02 03:16:51;;;;;;;7.35;4.75;;;;;;;13.01;67.40;99298.34;4290135;33;33763;-72
2022/05/02 03:19:19;;;;;;;8.73;4.85;;;;;;;13.54;64.44;99298.06;4290775;33;34876;-73
2022/05/02 03:21:47;;;;;;;8.25;4.53;;;;;;;13.46;64.02;99300.87;4290306;33;35909;-72
2022/05/02 03:24:15;;;;;;;8.02;4.95;;;;;;;13.32;64.85;99300.31;4290665;33;32929;-72
2022/05/02 03:26:42;;;;;;;7.53;5.12;;;;;;;13.58;64.12;99301.47;4291138;33;33786;-71
2022/05/02 03:29:10;;;;;;;6.47;4.50;;;;;;;13.89;63.07;99287.63;4281970;33;34911;-72
2022/05/02 03:31:38;;;;;;;8.93;5.12;;;;;;;13.45;64.42;99293.06;4286093;33;36049;-71
2022/05/02 03:34:06;;;;;;;6.82;4.50;;;;;;;12.93;63.43;99292.41;4289834;33;34565;-71
2022/05/02 03:36:35;;;;;;;8.77;5.28;;;;;;;12.92;65.02;99282.88;4290696;33;33412;-73
2022/05/02 03:39:03;;;;;;;8.70;5.30;;;;;;;13.21;65.77;99294.44;4289947;33;34011;-71
2022/05/02 03:41:31;;;;;;;11.40;5.47;;;;;;;13.39;65.83;99299.25;4290680;33;35870;-72
2022/05/02 03:43:59;;;;;;;8.02;5.57;;;;;;;13.37;65.23;99285.37;4289893;33;35404;-71
2022/05/02 03:46:27;;;;;;;7.85;5.18;;;;;;;12.54;66.81;99286.25;4289961;33;34411;-73
2022/05/02 03:48:55;;;;;;;9.80;5.15;;;;;;;13.46;65.29;99292.16;4290147;33;34738;-72
2022/05/02 03:51:22;;;;;;;7.18;4.70;;;;;;;13.45;65.63;99288.69;4288590;33;35025;-73
2022/05/02 03:53:50;;;;;;;5.87;4.43;;;;;;;13.22;66.47;99280.47;4289555;33;35232;-73
2022/05/02 03:56:18;;;;;;;9.88;5.35;;;;;;;14.17;64.00;99278.19;4290239;33;33668;-73
2022/05/02 03:58:46;;;;;;;8.63;5.18;;;;;;;13.33;65.54;99281.12;4289661;33;33934;-72
2022/05/02 04:01:14;;;;;;;6.65;5.18;;;;;;;13.70;64.35;99282.00;4290329;33;35026;-74
2022/05/02 04:03:42;;;;;;;6.20;4.50;;;;;;;13.30;65.13;99275.91;4288705;33;34510;-72
2022/05/02 04:06:10;;;;;;;21.45;5.80;;;;;;;12.98;62.49;99282.72;4289460;33;34503;-73
2022/05/02 04:08:37;;;;;;;10.68;5.50;;;;;;;13.64;64.13;99278.66;4289549;33;33989;-73
2022/05/02 04:11:05;;;;;;;6.00;3.95;;;;;;;13.59;62.85;99283.13;4289545;33;36027;-72
2022/05/02 04:13:33;;;;;;;7.35;4.62;;;;;;;13.81;61.35;99279.97;4289643;33;35400;-74
2022/05/02 04:16:01;;;;;;;6.95;4.43;;;;;;;13.45;61.79;99282.59;4277382;33;33684;-73
2022/05/02 04:18:29;;;;;;;8.38;4.65;;;;;;;13.29;62.21;99279.44;4289116;33;34120;-72
2022/05/02 04:20:56;;;;;;;6.18;4.43;;;;;;;13.89;64.59;99282.38;4289230;33;35042;-72
2022/05/02 04:23:24;;;;;;;5.82;4.37;;;;;;;13.59;65.49;99279.66;4289548;33;34728;-73
2022/05/02 04:25:52;;;;;;;5.68;3.95;;;;;;;13.89;64.02;99287.63;4290280;33;34547;-72
2022/05/02 04:28:20;;;;;;;8.30;4.45;;;;;;;14.38;64.24;99287.22;4289376;33;33998;-73
2022/05/02 04:30:48;;;;;;;6.87;4.03;;;;;;;14.29;64.29;99284.84;4289496;33;35863;-75
2022/05/02 04:33:16;;;;;;;6.82;4.25;;;;;;;14.71;63.97;99294.22;4289432;33;34493;-73
2022/05/02 04:35:43;;;;;;;15.05;5.50;;;;;;;14.31;63.98;99290.03;4289425;33;34151;-74
2022/05/02 04:38:11;;;;;;;10.48;4.18;;;;;;;14.20;61.89;99287.69;4289565;33;34000;-74
2022/05/02 04:40:39;;;;;;;6.10;4.18;;;;;;;14.46;64.88;99291.41;4289826;33;35167;-73
2022/05/02 04:43:07;;;;;;;5.60;4.18;;;;;;;14.54;64.15;99286.78;4289346;33;34454;-74
2022/05/02 04:45:35;;;;;;;7.47;4.28;;;;;;;14.54;65.25;99285.03;4290192;33;33765;-74
2022/05/02 04:48:03;;;;;;;5.75;4.28;;;;;;;15.24;62.35;99286.53;4288826;33;34805;-73
2022/05/02 04:50:31;;;;;;;8.73;4.20;;;;;;;15.28;62.64;99289.91;4289505;33;35146;-73
2022/05/02 04:52:59;;;;;;;5.40;4.07;;;;;;;15.38;63.53;99301.84;4289511;33;34164;-73
2022/05/02 04:55:27;;;;;;;6.28;4.10;;;;;;;15.06;64.49;99295.81;4290206;33;33688;-73
2022/05/02 04:57:54;;;;;;;15.25;4.95;;;;;;;14.93;60.59;99303.19;4289395;33;35018;-73
2022/05/02 05:00:22;;;;;;;6.93;3.95;;;;;;;14.96;63.35;99300.47;4290170;33;35006;-73
2022/05/02 05:02:50;;;;;;;6.87;4.12;;;;;;;15.94;60.94;99313.25;4289466;33;34606;-73
2022/05/02 05:05:19;;;;;;;8.27;3.97;;;;;;;15.21;55.60;99310.22;4289439;33;34511;-73
2022/05/02 05:07:46;;;;;;;6.12;3.90;;;;;;;15.06;54.63;99321.19;4288178;33;34882;-73
2022/05/02 05:10:14;;;;;;;7.32;4.00;;;;;;;15.36;55.95;99320.25;4290214;33;34740;-73
2022/05/02 05:12:54;;;;;;;7.55;3.95;;;;;;;15.80;53.32;99316.31;4289368;33;34737;-73
2022/05/02 05:19:26;;;;;;;11.00;4.15;;;;;;;15.97;52.02;99321.88;4288118;33;34731;-73
2022/05/02 05:22:11;;;;;;;5.87;4.03;;;;;;;16.34;49.33;99320.63;4230757;33;35868;-73
2022/05/02 05:25:20;;;;;;;7.75;4.50;;;;;;;16.86;45.25;99324.03;4272392;33;35374;-73
2022/05/02 05:28:00;;;;;;;7.47;4.30;;;;;;;16.56;46.20;99325.13;4289274;33;33763;-74
2022/05/02 05:30:38;;;;;;;7.90;3.97;;;;;;;16.65;45.25;99325.63;4289980;33;34801;-73
2022/05/02 05:33:28;;;;;;;6.18;4.03;;;;;;;16.98;44.80;99321.88;4276570;33;35120;-74
2022/05/02 05:36:03;;;;;;;8.63;4.80;;;;;;;16.53;45.64;99325.22;4288594;33;34725;-73
2022/05/02 05:38:54;;;;;;;7.60;5.05;;;;;;;16.42;45.84;99326.47;4288277;33;33791;-74
2022/05/02 05:41:53;;;;;;;6.65;4.55;;;;;;;16.96;44.13;99318.44;4277068;33;33865;-74
2022/05/02 05:44:55;;;;;;;9.10;4.75;;;;;;;17.07;44.26;99321.53;4287871;33;33516;-73
2022/05/02 05:47:59;;;;;;;6.78;4.18;;;;;;;16.92;45.08;99319.47;4289929;33;34414;-72
2022/05/02 05:50:31;;;;;;;8.95;4.35;;;;;;;16.87;45.61;99312.63;4288778;33;33658;-73
2022/05/02 05:53:02;;;;;;;6.50;4.20;;;;;;;16.96;45.81;99321.06;4286741;33;34812;-73
2022/05/02 05:55:50;;;;;;;6.15;4.20;;;;;;;16.64;46.66;99313.44;4287795;33;35065;-73
2022/05/02 05:58:29;;;;;;;7.12;4.53;;;;;;;17.29;45.02;99318.06;4276099;33;35466;-73
2022/05/02 06:01:12;;;;;;;9.63;4.53;;;;;;;17.45;44.56;99321.81;4276810;33;33854;-73
2022/05/02 06:04:03;;;;;;;9.77;3.85;;;;;;;17.24;44.75;99316.50;4274394;33;34785;-73
2022/05/02 06:06:31;;;;;;;9.45;4.45;;;;;;;17.11;47.73;99317.88;4280115;33;35956;-73
2022/05/02 06:09:00;;;;;;;9.27;5.40;;;;;;;17.29;46.94;99316.28;4288571;33;34796;-73
2022/05/02 06:11:28;;;;;;;7.32;4.75;;;;;;;17.22;45.55;99315.69;4288658;33;33796;-73
2022/05/02 06:13:58;;;;;;;7.80;4.70;;;;;;;17.43;44.99;99321.03;4288592;33;34049;-73
2022/05/02 06:19:25;;;;;;;6.07;3.80;;;;;;;16.55;49.69;99315.50;4288718;33;34400;-73
2022/05/02 06:21:54;;;;;;;7.78;4.57;;;;;;;17.51;49.57;99316.31;4275889;33;34521;-73
2022/05/02 06:24:27;;;;;;;6.18;4.32;;;;;;;17.11;49.45;99315.22;4288626;33;35822;-74
2022/05/02 06:26:56;;;;;;;8.10;5.30;;;;;;;16.71;52.65;99321.94;4288774;33;34788;-74
2022/05/02 06:29:24;;;;;;;7.45;5.05;;;;;;;17.69;51.40;99316.50;4287320;33;34590;-73
2022/05/02 06:31:54;;;;;;;10.27;5.15;;;;;;;16.68;55.10;99324.69;4276511;33;33611;-73
2022/05/02 06:34:26;;;;;;;10.43;5.15;;;;;;;16.28;56.48;99320.81;4275536;33;34757;-73
2022/05/02 06:37:11;;;;;;;9.45;5.10;;;;;;;16.73;54.19;99321.88;4288143;33;35058;-73
2022/05/02 06:39:54;;;;;;;7.72;5.03;;;;;;;16.27;56.29;99324.34;4288324;33;34512;-73
2022/05/02 06:42:38;;;;;;;12.23;5.25;;;;;;;17.02;52.36;99319.06;4287918;33;33150;-74
2022/05/02 06:45:21;;;;;;;12.48;5.90;;;;;;;16.51;55.85;99316.53;4288784;33;31982;-73
2022/05/02 06:48:07;;;;;;;9.45;5.00;;;;;;;16.99;55.72;99320.97;4288554;33;35825;-74
2022/05/02 06:50:38;;;;;;;8.32;4.87;;;;;;;16.84;53.69;99325.88;4288875;33;34556;-73
2022/05/02 06:53:28;;;;;;;10.13;5.32;;;;;;;17.03;51.90;99335.72;4276178;33;33920;-73
2022/05/02 06:56:20;;;;;;;7.57;5.15;;;;;;;17.88;49.92;99337.75;4287719;33;34652;-74
2022/05/02 06:59:05;;;;;;;9.30;5.07;;;;;;;17.61;49.71;99333.47;4288516;33;36003;-73
2022/05/02 07:01:47;;;;;;;7.47;4.55;;;;;;;17.86;48.42;99343.06;4275926;33;34591;-72
2022/05/02 07:04:24;;;;;;;7.55;4.78;;;;;;;18.00;48.73;99340.72;4287315;33;33667;-73
2022/05/02 07:07:14;;;;;;;7.55;4.55;;;;;;;17.86;47.99;99348.34;4291109;33;34039;-73
2022/05/02 07:09:48;;;;;;;10.48;6.57;;;;;;;18.06;48.19;99349.28;4290610;33;35115;-72
2022/05/02 07:12:22;;;;;;;8.93;5.55;;;;;;;17.35;51.23;99345.03;4290797;33;35352;-72
2022/05/02 07:15:42;;;;;;;10.82;6.40;;;;;;;17.40;49.61;99350.97;4290118;33;34430;-73
2022/05/02 07:18:35;;;;;;;10.48;6.87;;;;;;;17.36;52.97;99343.25;4288181;33;33856;-72
2022/05/02 07:21:40;;;;;;;12.37;7.47;;;;;;;17.72;50.21;99348.84;4290764;33;35945;-72
2022/05/02 07:24:26;;;;;;;9.73;5.78;;;;;;;16.90;52.19;99348.44;4278534;33;34544;-72
2022/05/02 07:27:04;;;;;;;12.40;6.40;;;;;;;17.60;48.58;99341.44;4291115;33;34511;-73
2022/05/02 07:29:33;;;;;;;13.85;7.65;;;;;;;17.56;49.87;99340.69;4277144;33;34629;-72
2022/05/02 07:32:01;;;;;;;11.40;7.65;;;;;;;17.34;51.23;99345.94;4290588;33;35063;-72
2022/05/02 07:34:30;;;;;;;10.68;6.35;;;;;;;17.59;48.74;99345.84;4288871;33;35192;-72
2022/05/02 07:36:59;;;;;;;14.23;6.87;;;;;;;17.79;49.01;99352.09;4290337;33;33720;-73
2022/05/02 07:39:28;;;;;;;14.43;7.22;;;;;;;18.15;48.63;99343.63;4289624;33;34042;-73
2022/05/02 07:42:00;;;;;;;12.70;7.57;;;;;;;17.98;49.58;99346.94;4290130;33;35121;-72
2022/05/02 07:44:31;;;;;;;12.15;7.60;;;;;;;17.87;49.49;99350.03;4289899;33;34780;-72
2022/05/02 07:47:01;;;;;;;14.87;7.62;;;;;;;18.13;47.61;99342.84;4289790;33;32923;-73
2022/05/02 07:49:32;;;;;;;15.35;7.45;;;;;;;18.58;46.30;99341.78;4289775;33;34044;-72
2022/05/02 07:52:01;;;;;;;18.00;7.68;;;;;;;17.93;49.90;99341.88;4290684;33;35674;-72
2022/05/02 07:54:30;;;;;;;11.48;8.32;;;;;;;18.41;46.35;99341.69;4288863;33;34499;-72
2022/05/02 07:57:02;;;;;;;12.50;7.68;;;;;;;18.56;47.81;99333.09;4290524;33;33680;-73
2022/05/02 07:59:33;;;;;;;11.70;6.32;;;;;;;19.36;47.02;99334.81;4289927;33;34047;-73
2022/05/02 08:02:02;;;;;;;8.70;5.80;;;;;;;19.50;44.03;99336.75;4289657;33;35185;-73
2022/05/02 08:04:31;;;;;;;8.00;5.30;;;;;;;19.72;43.52;99341.88;4288228;33;35084;-73
2022/05/02 08:07:14;;;;;;;9.45;5.50;;;;;;;19.81;44.40;99341.47;4290632;33;33604;-72
2022/05/02 08:09:57;;;;;;;8.63;5.65;;;;;;;20.27;41.26;99344.47;4289780;33;33657;-72
2022/05/02 08:12:37;;;;;;;10.40;4.50;;;;;;;20.10;43.52;99347.13;4290536;33;35842;-73
2022/05/02 08:15:18;;;;;;;8.20;3.85;;;;;;;20.30;44.12;99345.25;4289701;33;35356;-72
2022/05/02 08:18:11;;;;;;;6.90;3.87;;;;;;;20.48;40.85;99344.31;4277006;33;34635;-73
2022/05/02 08:20:44;;;;;;;7.07;4.22;;;;;;;20.21;41.40;99343.94;4290299;33;34080;-73
2022/05/02 08:27:34;;;;;;;10.07;3.33;;;;;;;20.01;43.83;99336.97;4261388;33;35292;-72
2022/05/02 08:29:50;;;;;;;6.05;3.40;;;;;;;20.45;42.65;99337.41;4280321;33;34349;-73
2022/05/02 08:32:35;;;;;;;5.97;3.33;;;;;;;19.45;45.95;99342.28;4277628;33;33938;-72
2022/05/02 08:35:12;;;;;;;4.43;2.85;;;;;;;20.37;42.31;99338.72;4276699;33;35139;-72
2022/05/02 08:37:49;;;;;;;8.32;3.22;;;;;;;20.34;41.66;99338.87;4289101;33;34554;-73
2022/05/02 08:40:23;;;;;;;6.87;3.28;;;;;;;20.48;40.92;99331.09;4287207;33;34632;-73
2022/05/02 08:43:06;;;;;;;5.60;3.05;;;;;;;20.55;40.79;99328.97;4290347;33;34023;-73
2022/05/02 08:46:09;;;;;;;5.65;2.40;;;;;;;20.85;41.34;99334.47;4290110;33;35039;-73
2022/05/02 08:49:35;;;;;;;7.15;2.85;;;;;;;20.88;40.97;99323.75;4289559;33;34419;-72
2022/05/02 08:52:34;;;;;;;3.95;2.37;;;;;;;20.40;40.91;99330.63;4289606;33;33375;-73
2022/05/02 08:55:09;;;;;;;4.93;2.40;;;;;;;20.79;40.05;99329.53;4288729;33;34821;-73
2022/05/02 08:57:53;;;;;;;4.12;2.40;;;;;;;20.63;40.37;99329.47;4290492;33;35865;-73
2022/05/02 09:00:39;;;;;;;4.50;2.60;;;;;;;20.48;40.74;99325.78;4289636;33;34646;-74
2022/05/02 09:03:53;;;;;;;5.10;2.67;;;;;;;20.89;43.08;99317.50;4290304;33;33689;-74
2022/05/02 09:06:31;;;;;;;4.78;2.65;;;;;;;20.51;40.74;99322.16;4291757;33;33933;-73
2022/05/02 09:09:23;;;;;;;5.72;2.58;;;;;;;20.54;41.91;99314.03;4293638;33;35190;-73
2022/05/02 09:12:22;;;;;;;3.67;2.35;;;;;;;20.36;43.52;99318.50;4295846;33;34233;-72
2022/05/02 09:15:30;;;;;;;4.60;2.55;;;;;;;20.64;39.82;99317.94;4295861;33;33623;-73
2022/05/02 09:18:22;;;;;;;6.12;2.45;;;;;;;20.34;39.88;99317.72;4271726;33;34128;-73
2022/05/02 09:21:00;;;;;;;4.35;2.53;;;;;;;20.10;42.36;99315.41;4294011;33;34943;-73
2022/05/02 09:23:47;;;;;;;4.90;2.60;;;;;;;20.57;41.69;99312.09;4294982;33;34545;-73
2022/05/02 09:26:32;;;;;;;7.47;3.53;;;;;;;20.20;43.86;99313.13;4280689;33;34513;-74
2022/05/02 09:29:43;;;;;;;7.97;4.60;;;;;;;20.89;41.45;99306.91;4281962;33;34088;-73
2022/05/02 09:32:18;;;;;;;4.93;3.10;;;;;;;20.19;44.31;99304.34;4293391;33;34811;-73
2022/05/02 09:34:51;;;;;;;5.73;3.90;;;;;;;20.87;43.10;99298.19;4282916;33;34449;-73
2022/05/02 09:37:47;;;;;;;7.28;3.33;;;;;;;20.80;43.33;99304.75;4296347;33;33570;-74
2022/05/02 09:40:19;;;;;;;4.68;2.90;;;;;;;21.68;40.14;99308.75;4279067;33;32953;-72
2022/05/02 09:43:24;;;;;;;5.65;3.50;;;;;;;21.33;40.74;99306.25;4282382;33;34992;-74
2022/05/02 09:49:43;;;;;;;6.90;3.03;;;;;;;20.67;41.20;99304.56;4270805;33;33729;-74
2022/05/02 09:52:15;;;;;;;6.93;3.20;;;;;;;21.19;40.45;99306.16;4296141;33;34791;-73
2022/05/02 09:58:03;;;;;;;5.53;3.37;;;;;;;21.36;39.31;99306.09;4295075;33;34589;-73
2022/05/02 10:01:07;;;;;;;4.70;2.90;;;;;;;20.92;42.67;99298.81;4291511;33;33642;-73
2022/05/02 10:03:41;;;;;;;6.45;2.33;;;;;;;21.17;40.45;99292.16;4293130;33;33914;-73
2022/05/02 10:06:19;;;;;;;4.32;2.35;;;;;;;21.69;39.01;99291.03;4282074;33;33142;-73
2022/05/02 10:08:57;;;;;;;4.50;2.12;;;;;;;21.82;39.34;99289.41;4279699;33;35392;-73
2022/05/02 10:11:45;;;;;;;4.90;1.98;;;;;;;21.94;40.91;99282.56;4281138;33;32697;-73
2022/05/02 10:14:24;;;;;;;12.18;2.28;;;;;;;22.13;37.50;99277.87;4280906;33;33938;-73
2022/05/02 10:17:00;;;;;;;3.97;2.28;;;;;;;22.44;38.19;99278.69;4282986;33;35775;-73
2022/05/02 10:19:46;;;;;;;7.37;2.30;;;;;;;22.84;39.20;99278.06;4293294;33;34400;-73
2022/05/02 10:22:24;;;;;;;4.78;1.90;;;;;;;23.14;36.55;99272.62;4295542;33;34344;-73
2022/05/02 10:24:59;;;;;;;5.10;2.05;;;;;;;22.96;36.57;99271.97;4280260;33;34701;-74
2022/05/02 10:27:33;;;;;;;4.75;2.00;;;;;;;22.64;39.78;99260.69;4294029;33;35174;-73
2022/05/02 10:30:01;;;;;;;3.37;1.80;;;;;;;23.22;38.03;99261.50;4279242;33;34472;-73
2022/05/02 10:32:43;;;;;;;4.85;2.72;;;;;;;23.51;34.71;99262.28;4294743;33;33705;-73
2022/05/02 10:35:17;;;;;;;6.35;2.10;;;;;;;23.72;33.76;99253.81;4281445;33;33957;-74
2022/05/02 10:38:01;;;;;;;2.42;1.62;;;;;;;23.20;36.52;99258.94;4280660;33;35156;-73
2022/05/02 10:40:30;;;;;;;2.65;1.80;;;;;;;23.70;32.69;99250.41;4293532;33;34570;-74
2022/05/02 10:43:03;;;;;;;5.62;2.00;;;;;;;23.11;34.51;99248.06;4293475;33;33625;-74
2022/05/02 10:45:34;;;;;;;2.50;1.70;;;;;;;23.58;34.21;99252.09;4296313;33;34720;-75
2022/05/02 10:48:45;;;;;;;4.00;2.00;;;;;;;23.08;33.27;99247.31;4291461;33;35813;-75
2022/05/02 10:51:46;;;;;;;4.00;1.65;;;;;;;22.95;34.40;99254.31;4267468;33;35362;-75
2022/05/02 10:54:19;;;;;;;2.20;1.58;;;;;;;22.70;34.27;99255.03;4289316;33;34406;-74
2022/05/02 10:56:58;;;;;;;2.15;1.60;;;;;;;22.53;33.88;99248.94;4275573;33;33989;-74
2022/05/02 10:59:30;;;;;;;4.07;2.10;;;;;;;23.09;34.48;99250.81;4288963;33;35025;-73
2022/05/02 11:02:49;;;;;;;3.10;1.92;;;;;;;22.99;33.75;99252.31;4276738;33;33307;-71
2022/05/02 11:05:23;;;;;;;;;;;;;;;23.06;32.99;99256.31;4219882;33;33505;-74
2022/05/02 11:07:54;;;;;;;3.80;2.28;;;;;;;22.61;34.84;99250.28;4287001;33;34211;-73
2022/05/02 11:10:27;;;;;;;2.55;1.65;;;;;;;22.79;34.04;99249.13;4288542;33;35038;-72
2022/05/02 11:13:04;;;;;;;3.45;1.77;;;;;;;22.76;33.17;99254.63;4288725;33;34547;-73
2022/05/02 11:15:44;;;;;;;2.58;1.80;;;;;;;22.53;32.81;99246.28;4289698;33;33793;-73
2022/05/02 11:21:46;;;;;;;5.62;2.10;;;;;;;22.82;33.39;99251.59;4289906;33;35171;-72
2022/05/02 11:24:32;;;;;;;3.55;1.95;;;;;;;22.64;34.24;99244.75;4275958;33;35286;-73
2022/05/02 11:27:14;;;;;;;3.40;1.90;;;;;;;23.20;34.71;99248.31;4274501;33;33793;-71
2022/05/02 11:30:09;;;;;;;5.37;1.98;;;;;;;23.15;33.96;99245.09;4275012;33;33919;-71
2022/05/02 11:32:56;;;;;;;3.60;2.10;;;;;;;22.89;34.87;99246.75;4284009;33;34877;-72
2022/05/02 11:35:33;;;;;;;2.45;1.83;;;;;;;22.40;35.33;99245.34;4289699;33;34626;-72
2022/05/02 11:38:28;;;;;;;4.68;1.92;;;;;;;22.65;33.97;99241.19;4276066;33;33619;-73
2022/05/02 11:41:25;;;;;;;4.45;2.17;;;;;;;22.66;35.05;99240.22;4290586;33;34777;-74
2022/05/02 11:44:08;;;;;;;4.28;1.85;;;;;;;22.21;38.71;99234.13;4275185;33;35977;-74
2022/05/02 11:47:06;;;;;;;4.68;2.35;;;;;;;22.99;34.24;99239.87;4288059;33;35289;-74
2022/05/02 11:50:12;;;;;;;3.62;1.77;;;;;;;22.99;31.45;99239.03;4287266;33;33658;-74
2022/05/02 11:52:44;;;;;;;3.67;2.12;;;;;;;23.22;31.56;99233.13;4213548;34;33122;-74
2022/05/02 11:55:12;;;;;;;5.00;1.95;;;;;;;22.87;33.77;99230.91;4210734;34;35828;-74
2022/05/02 11:57:52;;;;;;;4.50;2.03;;;;;;;22.95;34.00;99226.94;4239329;33;35058;-74
2022/05/02 12:00:20;;;;;;;3.78;1.98;;;;;;;22.95;32.63;99219.81;4289165;33;34436;-74
2022/05/02 12:02:56;;;;;;;3.58;1.65;;;;;;;22.49;35.04;99226.19;4287487;33;34077;-74
2022/05/02 12:05:32;;;;;;;2.78;1.87;;;;;;;23.06;31.90;99213.84;4286963;33;35785;-74
2022/05/02 12:08:08;;;;;;;2.72;1.77;;;;;;;23.52;32.75;99221.44;4273270;33;34609;-74
2022/05/02 12:10:47;;;;;;;7.37;3.47;;;;;;;23.09;33.74;99213.66;4289055;33;33524;-74
2022/05/02 12:13:18;;;;;;;3.20;1.80;;;;;;;23.44;33.80;99214.00;4275040;33;33510;-73
2022/05/02 12:15:54;;;;;;;3.45;1.83;;;;;;;23.67;33.54;99209.81;4289041;33;34365;-73
2022/05/02 12:18:23;;;;;;;3.72;2.10;;;;;;;23.37;33.06;99207.38;4273821;33;34665;-73
2022/05/02 12:20:57;;;;;;;4.40;1.92;;;;;;;23.42;32.68;99207.09;4275844;33;33142;-74
2022/05/02 12:23:33;;;;;;;4.97;2.15;;;;;;;23.39;32.80;99201.97;4288632;33;33869;-74
2022/05/02 12:26:04;;;;;;;2.33;1.73;;;;;;;23.82;32.34;99196.47;4290305;33;35941;-74
2022/05/02 12:28:55;;;;;;;3.33;1.90;;;;;;;23.63;32.07;99192.37;4289588;33;34855;-74
2022/05/02 12:31:26;;;;;;;5.00;2.05;;;;;;;23.90;32.70;99188.81;4290392;33;33751;-75
2022/05/02 12:33:57;;;;;;;6.20;3.30;;;;;;;24.01;30.77;99185.41;4289335;33;33972;-73
2022/05/02 12:36:35;;;;;;;4.35;2.78;;;;;;;24.98;31.77;99181.25;4289403;33;34441;-74